Stratford, Virginia
Current Conditions -  °F | °C
As of 3:55 AM on Saturday 22 Nov 2014 (Local Time) from KXSA Reporting Station
Clear Clear  
Wind Chill: 19°   Ceiling: Unl
Heat Index: 19°   Visibility: 10mi
Dew Point: 14°   Wind: 0mph
Humidity: 79%   Direction: NA
Pressure: 30.56"   Gusts: NA
Location:  38.12°N, 76.81°W
Report Text: KXSA 220855Z AUTO 00000KT 10SM CLR M07/M10 A3056 RMK AO2 T10711102
Loading
Personal Weather Stations






























Interactive Weather Map New forecast layout! Learn more

10-Day Weather Forecast

Advertisements
Track Severe Weather on mobile